This is the latest recevied weather packets stored in our database for station/object PY2KO-3. If no packets are shown the sender has not sent any weather packets the latest 10 day(s).
| Time | Temp. | Humidity | Pressure | Rain* | Wind** | Luminosity | Snow |
|---|---|---|---|---|---|---|---|
| 1777496651 | 19.44° C | 86% | 1020 hPa | - | - | - | - |
| 1777495752 | 19.44° C | 87% | 1020.1 hPa | - | - | - | - |
| 1777494852 | 19.44° C | 87% | 1020.2 hPa | - | - | - | - |
| 1777493955 | 18.89° C | 88% | 1020.3 hPa | - | - | - | - |
| 1777493055 | 19.44° C | 87% | 1020.2 hPa | - | - | - | - |
| 1777492152 | 18.89° C | 89% | 1020.1 hPa | - | - | - | - |
| 1777491254 | 18.33° C | 89% | 1020 hPa | - | - | - | - |
| 1777490351 | 18.89° C | 87% | 1019.4 hPa | - | - | - | - |
| 1777489453 | 19.44° C | 87% | 1019.1 hPa | - | - | - | - |
| 1777488556 | 20.56° C | 87% | 1018.4 hPa | - | - | - | - |
| 1777487654 | 20.56° C | 84% | 1018.1 hPa | - | - | - | - |
| 1777486754 | 21.67° C | 82% | 1017.2 hPa | - | - | - | - |
| 1777485854 | 22.22° C | 79% | 1016.6 hPa | - | - | - | - |
| 1777484951 | 24.44° C | 75% | 1015.8 hPa | - | - | - | - |
| 1777484051 | 27.78° C | 66% | 1014.2 hPa | - | - | - | - |
| 1777483151 | 29.44° C | 60% | 1013.7 hPa | - | - | - | - |
| 1777482254 | 30° C | 59% | 1013.8 hPa | - | - | - | - |
| 1777481362 | 30.56° C | 55% | 1013.7 hPa | - | - | - | - |
| 1777480457 | 31.11° C | 54% | 1013.7 hPa | - | - | - | - |
| 1777479551 | 30° C | 58% | 1014.2 hPa | - | - | - | - |
| 1777478658 | 30° C | 58% | 1014.3 hPa | - | - | - | - |
| 1777477752 | 30° C | 58% | 1014.8 hPa | - | - | - | - |
| 1777476851 | 28.89° C | 60% | 1015.1 hPa | - | - | - | - |
| 1777475951 | 28.89° C | 60% | 1015.3 hPa | - | - | - | - |
| 1777475051 | 28.89° C | 60% | 1015.4 hPa | - | - | - | - |
* Rain since midnight (hover to see other rain measurements)
** Current wind speed in m/s (hover to see current wind gust speed)